Terminal Aerodrome Forecast
Issued by NWS Albany, NY

Home | Current Version | Previous Version | Text Only | Print | Product List | Glossary On
Versions: 1 2 3 4 5 6 7 8 9 10 11 12 13 14 15 16 17 18 19 20 21 22 23
000
FTUS41 KALY 271100 RRA
TAFALB
TAF
KALB 271145Z 2712/2812 19005KT P6SM BKN040 BKN250
     FM271900 19007KT P6SM SCT040 SCT250
     FM280200 18008KT P6SM BKN040 BKN100
     FM280500 20008KT P6SM VCSH OVC040
     FM280800 21010KT 5SM -SHRA BR BKN025 OVC040=

USA.gov is the U.S. government's official web portal to all federal, state and local government web resources and services.